Time;durP1;ratioP1;P1;durP2;ratioP2;P2;SDS_P1;SDS_P2;PMS_P1;PMS_P2;Temp;Humidity;BMP_temperature;BMP_pressure;BME280_temperature;BME280_humidity;BME280_pressure;Samples;Min_cycle;Max_cycle;Signal;HPM_P1;HPM_P2
2020/12/31 00:01:17;;;;;;;2.27;1.77;;;;;;;;;;5032439;28;20021;-81
2020/12/31 00:03:43;;;;;;;4.07;2.30;;;;;;;;;;5033623;28;20083;-81
2020/12/31 00:06:08;;;;;;;6.30;2.77;;;;;;;;;;5032516;28;20095;-80
2020/12/31 00:08:33;;;;;;;5.13;3.00;;;;;;;;;;5034365;28;20039;-81
2020/12/31 00:10:58;;;;;;;4.80;2.80;;;;;;;;;;5033980;28;20021;-81
2020/12/31 00:13:23;;;;;;;3.87;2.30;;;;;;;;;;5032992;28;20017;-81
2020/12/31 00:15:49;;;;;;;4.33;2.50;;;;;;;;;;5034517;28;20064;-81
2020/12/31 00:18:14;;;;;;;5.43;2.60;;;;;;;;;;5032256;28;20036;-81
2020/12/31 00:20:39;;;;;;;4.47;2.80;;;;;;;;;;5032902;28;20373;-81
2020/12/31 00:23:05;;;;;;;5.87;3.03;;;;;;;;;;5020957;28;20033;-81
2020/12/31 00:25:30;;;;;;;6.20;3.03;;;;;;;;;;5014749;28;20021;-81
2020/12/31 00:27:55;;;;;;;8.00;3.00;;;;;;;;;;5015992;28;20018;-81
2020/12/31 00:30:20;;;;;;;4.83;2.73;;;;;;;;;;5013518;28;20376;-81
2020/12/31 00:32:45;;;;;;;3.67;2.30;;;;;;;;;;5014751;28;20025;-81
2020/12/31 00:35:11;;;;;;;4.00;2.40;;;;;;;;;;5015598;28;20117;-81
2020/12/31 00:37:37;;;;;;;3.67;2.43;;;;;;;;;;5014585;28;20045;-81
2020/12/31 00:40:04;;;;;;;5.93;2.23;;;;;;;;;;5015870;28;20030;-81
2020/12/31 00:42:29;;;;;;;3.73;2.20;;;;;;;;;;5014570;28;20014;-81
2020/12/31 00:44:54;;;;;;;4.40;2.00;;;;;;;;;;5004078;28;20029;-81
2020/12/31 00:47:19;;;;;;;3.87;2.00;;;;;;;;;;5014356;28;20018;-81
2020/12/31 00:49:45;;;;;;;2.97;1.63;;;;;;;;;;5014159;28;20018;-81
2020/12/31 00:52:10;;;;;;;4.90;1.33;;;;;;;;;;5014417;28;20104;-81
2020/12/31 00:54:35;;;;;;;2.90;1.40;;;;;;;;;;5014426;28;20022;-81
2020/12/31 00:57:00;;;;;;;5.10;1.43;;;;;;;;;;5015894;28;20104;-81
2020/12/31 00:59:25;;;;;;;3.00;1.37;;;;;;;;;;5014233;28;20014;-81
2020/12/31 01:01:50;;;;;;;4.10;1.37;;;;;;;;;;5015577;28;20026;-81
2020/12/31 01:04:16;;;;;;;4.73;1.57;;;;;;;;;;5014183;28;20088;-81
2020/12/31 01:06:41;;;;;;;3.67;1.13;;;;;;;;;;5014347;28;20025;-81
2020/12/31 01:09:07;;;;;;;2.57;1.17;;;;;;;;;;5014209;28;20372;-81
2020/12/31 01:11:33;;;;;;;2.70;1.07;;;;;;;;;;5013971;28;20021;-81
2020/12/31 01:13:58;;;;;;;5.17;1.80;;;;;;;;;;5015100;28;20026;-81
2020/12/31 01:16:23;;;;;;;3.93;1.70;;;;;;;;;;5013963;28;20423;-81
2020/12/31 01:18:48;;;;;;;4.97;1.73;;;;;;;;;;5014091;28;20018;-80
2020/12/31 01:21:13;;;;;;;8.13;1.70;;;;;;;;;;5013940;28;20022;-80
2020/12/31 01:23:39;;;;;;;5.30;1.93;;;;;;;;;;5013327;28;20599;-81
2020/12/31 01:26:04;;;;;;;13.07;3.03;;;;;;;;;;5013983;28;20014;-81
2020/12/31 01:28:29;;;;;;;4.50;1.80;;;;;;;;;;5014799;28;20029;-81
2020/12/31 01:30:54;;;;;;;5.13;2.40;;;;;;;;;;5014990;28;20457;-81
2020/12/31 01:33:19;;;;;;;5.53;2.13;;;;;;;;;;5013918;28;20084;-81
2020/12/31 01:35:45;;;;;;;3.63;1.93;;;;;;;;;;5013724;28;20432;-80
2020/12/31 01:38:10;;;;;;;6.63;1.70;;;;;;;;;;5013686;28;20018;-81
2020/12/31 01:40:35;;;;;;;4.80;1.90;;;;;;;;;;5013638;28;20033;-81
2020/12/31 01:43:00;;;;;;;4.53;2.13;;;;;;;;;;5006746;28;20069;-81
2020/12/31 01:45:25;;;;;;;5.40;2.03;;;;;;;;;;5013608;28;20369;-81
2020/12/31 01:47:51;;;;;;;6.70;2.77;;;;;;;;;;5014712;28;20028;-81
2020/12/31 01:50:17;;;;;;;4.17;2.50;;;;;;;;;;5014757;28;20026;-80
2020/12/31 01:52:44;;;;;;;6.83;2.80;;;;;;;;;;5013256;28;20014;-81
2020/12/31 01:55:09;;;;;;;8.70;2.13;;;;;;;;;;5013041;28;20041;-81
2020/12/31 01:57:35;;;;;;;9.70;2.90;;;;;;;;;;5014595;28;20125;-81
2020/12/31 02:00:00;;;;;;;5.37;2.60;;;;;;;;;;5013235;28;20022;-81
2020/12/31 02:02:25;;;;;;;5.23;2.27;;;;;;;;;;5013434;28;20171;-81
2020/12/31 02:04:51;;;;;;;6.43;3.20;;;;;;;;;;5012755;28;20030;-81
2020/12/31 02:07:16;;;;;;;3.60;2.40;;;;;;;;;;5013283;28;20020;-81
2020/12/31 02:09:42;;;;;;;8.07;3.07;;;;;;;;;;5012517;28;20084;-81
2020/12/31 02:12:08;;;;;;;5.63;2.63;;;;;;;;;;5012888;28;20064;-81
2020/12/31 02:14:33;;;;;;;5.43;2.50;;;;;;;;;;5012458;28;20049;-81
2020/12/31 02:16:58;;;;;;;5.43;2.60;;;;;;;;;;5013028;28;20018;-81
2020/12/31 02:19:24;;;;;;;4.13;2.57;;;;;;;;;;5012073;28;20464;-81
2020/12/31 02:21:49;;;;;;;5.53;2.67;;;;;;;;;;5012353;28;20101;-80
2020/12/31 02:24:15;;;;;;;6.33;2.73;;;;;;;;;;5013593;28;20046;-81
2020/12/31 02:26:42;;;;;;;4.10;2.40;;;;;;;;;;5014010;28;20049;-81
2020/12/31 02:29:08;;;;;;;4.93;1.90;;;;;;;;;;5013650;28;20084;-81
2020/12/31 02:31:33;;;;;;;7.93;2.80;;;;;;;;;;5012904;28;20472;-80
2020/12/31 02:33:59;;;;;;;5.17;2.23;;;;;;;;;;5011442;28;20068;-81
2020/12/31 02:36:25;;;;;;;5.47;2.10;;;;;;;;;;5012408;28;20038;-81
2020/12/31 02:38:51;;;;;;;4.47;2.00;;;;;;;;;;5012997;28;20033;-81
2020/12/31 02:41:16;;;;;;;3.60;2.13;;;;;;;;;;5012462;28;20014;-81
2020/12/31 02:43:42;;;;;;;7.00;2.47;;;;;;;;;;5011551;28;20026;-81
2020/12/31 02:46:08;;;;;;;3.90;2.00;;;;;;;;;;5012306;28;20032;-81
2020/12/31 02:48:33;;;;;;;3.10;2.13;;;;;;;;;;5012403;28;20021;-81
2020/12/31 02:50:58;;;;;;;5.90;2.27;;;;;;;;;;5011879;28;20014;-81
2020/12/31 02:53:24;;;;;;;5.50;2.07;;;;;;;;;;5013731;28;20045;-81
2020/12/31 02:55:49;;;;;;;5.10;2.20;;;;;;;;;;5012419;28;20032;-81
2020/12/31 02:58:14;;;;;;;4.43;2.13;;;;;;;;;;5013114;28;20470;-81
2020/12/31 03:00:39;;;;;;;5.37;2.57;;;;;;;;;;5012339;28;20017;-81
2020/12/31 03:03:05;;;;;;;5.60;2.53;;;;;;;;;;5013322;28;20018;-81
2020/12/31 03:05:30;;;;;;;5.40;2.50;;;;;;;;;;5011130;28;20095;-81
2020/12/31 03:07:55;;;;;;;4.67;2.70;;;;;;;;;;5011671;28;20026;-80
2020/12/31 03:10:21;;;;;;;5.87;2.97;;;;;;;;;;5013055;28;20617;-81
2020/12/31 03:12:46;;;;;;;11.73;3.03;;;;;;;;;;5011794;28;20014;-81
2020/12/31 03:15:11;;;;;;;5.93;3.07;;;;;;;;;;5012965;28;20029;-81
2020/12/31 03:17:37;;;;;;;6.80;3.33;;;;;;;;;;5011990;28;20021;-81
2020/12/31 03:20:03;;;;;;;6.00;3.57;;;;;;;;;;5011593;28;20053;-81
2020/12/31 03:22:29;;;;;;;7.20;4.00;;;;;;;;;;5011945;28;20021;-81
2020/12/31 03:24:54;;;;;;;6.93;3.60;;;;;;;;;;5012039;28;20025;-81
2020/12/31 03:27:19;;;;;;;7.17;3.73;;;;;;;;;;5011641;28;20021;-81
2020/12/31 03:29:44;;;;;;;6.00;3.80;;;;;;;;;;5011630;28;20018;-81
2020/12/31 03:32:09;;;;;;;7.20;3.83;;;;;;;;;;5012411;28;20050;-81
2020/12/31 03:34:35;;;;;;;5.60;3.50;;;;;;;;;;5011829;28;20033;-81
2020/12/31 03:37:00;;;;;;;5.17;3.20;;;;;;;;;;5012058;28;20084;-81
2020/12/31 03:39:25;;;;;;;9.70;3.63;;;;;;;;;;5011676;28;20045;-81
2020/12/31 03:41:50;;;;;;;5.17;2.80;;;;;;;;;;5011735;28;20033;-81
2020/12/31 03:44:15;;;;;;;6.43;2.83;;;;;;;;;;5011394;28;20109;-81
2020/12/31 03:46:40;;;;;;;5.13;2.90;;;;;;;;;;5011929;28;20045;-81
2020/12/31 03:49:06;;;;;;;5.73;3.00;;;;;;;;;;5012798;28;20014;-80
2020/12/31 03:51:31;;;;;;;6.77;3.23;;;;;;;;;;5011962;28;20054;-81
2020/12/31 03:53:56;;;;;;;5.70;2.77;;;;;;;;;;5012925;28;20033;-81
2020/12/31 03:56:21;;;;;;;6.60;3.17;;;;;;;;;;5011649;28;20029;-81
2020/12/31 03:58:47;;;;;;;7.77;2.80;;;;;;;;;;5011277;28;20017;-81
2020/12/31 04:01:12;;;;;;;3.40;2.27;;;;;;;;;;5012092;28;20034;-81
2020/12/31 04:03:37;;;;;;;7.20;2.80;;;;;;;;;;5012783;28;20021;-81
2020/12/31 04:06:02;;;;;;;5.03;2.33;;;;;;;;;;5011525;28;20018;-81
2020/12/31 04:08:27;;;;;;;4.20;2.30;;;;;;;;;;5011462;28;20396;-81
2020/12/31 04:10:53;;;;;;;4.03;2.60;;;;;;;;;;5011364;28;20037;-81
2020/12/31 04:13:18;;;;;;;4.63;2.30;;;;;;;;;;5012018;28;20022;-81
2020/12/31 04:15:43;;;;;;;3.63;2.30;;;;;;;;;;5012736;28;20530;-81
2020/12/31 04:18:08;;;;;;;4.60;2.40;;;;;;;;;;5013347;28;20028;-81
2020/12/31 04:20:34;;;;;;;5.47;2.43;;;;;;;;;;5014932;28;20480;-81
2020/12/31 04:22:59;;;;;;;5.90;2.33;;;;;;;;;;5014812;28;20022;-81
2020/12/31 04:25:25;;;;;;;3.60;2.23;;;;;;;;;;5014958;28;20018;-81
2020/12/31 04:27:50;;;;;;;3.50;2.20;;;;;;;;;;5014459;28;20108;-81
2020/12/31 04:30:15;;;;;;;5.10;1.93;;;;;;;;;;5014422;28;20076;-81
2020/12/31 04:32:40;;;;;;;3.40;2.23;;;;;;;;;;5014899;28;20026;-81
2020/12/31 04:35:05;;;;;;;4.57;2.00;;;;;;;;;;5014572;28;20025;-81
2020/12/31 04:37:30;;;;;;;3.80;1.83;;;;;;;;;;5016104;28;20029;-81
2020/12/31 04:39:56;;;;;;;2.70;1.70;;;;;;;;;;5015676;28;20029;-81
2020/12/31 04:42:21;;;;;;;4.33;2.20;;;;;;;;;;5015905;28;20026;-81
2020/12/31 04:44:46;;;;;;;2.33;1.70;;;;;;;;;;5014216;28;20427;-81
2020/12/31 04:47:18;;;;;;;3.13;1.90;;;;;;;;;;5014474;28;20022;-81
2020/12/31 04:49:45;;;;;;;4.37;2.03;;;;;;;;;;5014466;28;20029;-81
2020/12/31 04:52:11;;;;;;;3.63;2.20;;;;;;;;;;5014546;28;20010;-81
2020/12/31 04:54:38;;;;;;;2.93;1.90;;;;;;;;;;5015263;28;20093;-81
2020/12/31 04:57:04;;;;;;;4.67;1.90;;;;;;;;;;5015606;28;20526;-81
2020/12/31 04:59:29;;;;;;;4.73;1.70;;;;;;;;;;5013756;28;20068;-81
2020/12/31 05:01:55;;;;;;;3.87;2.00;;;;;;;;;;5015599;28;20022;-81
2020/12/31 05:04:22;;;;;;;2.57;1.87;;;;;;;;;;5013848;28;20017;-81
2020/12/31 05:06:49;;;;;;;4.80;2.30;;;;;;;;;;5014211;28;20018;-80
2020/12/31 05:09:15;;;;;;;2.57;1.80;;;;;;;;;;5013904;28;20385;-81
2020/12/31 05:11:42;;;;;;;2.57;1.83;;;;;;;;;;5014200;28;20010;-81
2020/12/31 05:14:08;;;;;;;3.23;2.00;;;;;;;;;;5015149;28;20499;-81
2020/12/31 05:16:33;;;;;;;2.40;1.80;;;;;;;;;;5015208;28;20022;-81
2020/12/31 05:18:58;;;;;;;2.27;1.60;;;;;;;;;;5013758;28;20113;-81
2020/12/31 05:21:23;;;;;;;2.57;1.60;;;;;;;;;;5013891;28;20060;-81
2020/12/31 05:23:49;;;;;;;3.30;1.97;;;;;;;;;;5014095;28;20379;-81
2020/12/31 05:26:30;;;;;;;2.37;1.70;;;;;;;;;;5013825;28;20121;-81
2020/12/31 05:28:56;;;;;;;3.23;1.70;;;;;;;;;;5014446;28;20025;-81
2020/12/31 05:31:21;;;;;;;2.17;1.47;;;;;;;;;;5015059;28;20121;-81
2020/12/31 05:33:47;;;;;;;2.37;1.63;;;;;;;;;;5014733;28;20037;-81
2020/12/31 05:36:25;;;;;;;3.27;2.00;;;;;;;;;;5013777;28;20018;-81
2020/12/31 05:38:57;;;;;;;1.93;1.60;;;;;;;;;;5013470;28;20024;-81
2020/12/31 05:41:23;;;;;;;2.30;1.53;;;;;;;;;;5015205;28;20033;-81
2020/12/31 05:43:52;;;;;;;2.40;1.70;;;;;;;;;;5013355;28;20376;-81
2020/12/31 05:46:17;;;;;;;2.63;1.73;;;;;;;;;;5013833;28;20018;-81
2020/12/31 05:48:42;;;;;;;3.80;1.77;;;;;;;;;;5013558;28;20519;-81
2020/12/31 05:51:21;;;;;;;5.13;2.40;;;;;;;;;;5012357;28;20022;-81
2020/12/31 05:53:50;;;;;;;3.73;2.40;;;;;;;;;;5012321;28;20026;-81
2020/12/31 05:56:16;;;;;;;3.87;2.50;;;;;;;;;;5014342;28;20052;-81
2020/12/31 05:58:45;;;;;;;3.50;2.30;;;;;;;;;;5013078;28;20018;-81
2020/12/31 06:01:12;;;;;;;4.10;2.80;;;;;;;;;;5013764;28;20021;-81
2020/12/31 06:03:44;;;;;;;4.87;2.70;;;;;;;;;;5014367;28;20049;-81
2020/12/31 06:06:11;;;;;;;4.18;2.85;;;;;;;;;;5012842;28;20021;-81
2020/12/31 06:08:39;;;;;;;3.60;2.67;;;;;;;;;;5013289;28;20026;-81
2020/12/31 06:11:04;;;;;;;4.13;3.00;;;;;;;;;;5014332;28;20026;-81
2020/12/31 06:13:35;;;;;;;5.20;2.80;;;;;;;;;;5012734;28;20033;-82
2020/12/31 06:16:02;;;;;;;6.07;3.23;;;;;;;;;;5012877;28;20083;-81
2020/12/31 06:18:31;;;;;;;4.10;2.50;;;;;;;;;;5013956;28;20053;-81
2020/12/31 06:21:00;;;;;;;4.53;3.00;;;;;;;;;;5014132;28;20029;-81
2020/12/31 06:23:34;;;;;;;4.80;3.20;;;;;;;;;;5012409;28;20018;-81
2020/12/31 06:26:06;;;;;;;4.83;2.90;;;;;;;;;;5012939;28;20018;-81
2020/12/31 06:28:32;;;;;;;4.95;3.30;;;;;;;;;;5011915;28;20029;-81
2020/12/31 06:30:57;;;;;;;7.27;3.73;;;;;;;;;;5012712;28;20018;-81
2020/12/31 06:33:28;;;;;;;6.77;3.80;;;;;;;;;;5013701;28;20093;-81
2020/12/31 06:35:54;;;;;;;6.80;4.10;;;;;;;;;;5013710;28;20022;-81
2020/12/31 06:38:33;;;;;;;6.93;4.30;;;;;;;;;;5012156;28;20064;-81
2020/12/31 06:40:58;;;;;;;6.67;4.43;;;;;;;;;;5012756;28;20028;-81
2020/12/31 06:43:34;;;;;;;7.60;4.50;;;;;;;;;;5008414;28;20469;-81
2020/12/31 06:45:59;;;;;;;9.70;4.50;;;;;;;;;;5010702;28;20018;-81
2020/12/31 06:48:25;;;;;;;6.47;3.97;;;;;;;;;;5013637;28;20475;-81
2020/12/31 06:50:57;;;;;;;7.13;3.87;;;;;;;;;;5012185;28;20465;-81
2020/12/31 06:53:32;;;;;;;7.03;4.07;;;;;;;;;;5013843;28;20026;-81
2020/12/31 06:55:59;;;;;;;6.67;3.73;;;;;;;;;;5013318;28;20026;-81
2020/12/31 06:58:24;;;;;;;5.90;3.57;;;;;;;;;;5013247;28;20021;-81
2020/12/31 07:00:50;;;;;;;5.20;3.57;;;;;;;;;;5012185;28;20025;-81
2020/12/31 07:03:15;;;;;;;6.40;4.10;;;;;;;;;;5011931;28;20022;-81
2020/12/31 07:05:40;;;;;;;7.60;4.10;;;;;;;;;;5013374;28;20375;-81
2020/12/31 07:08:06;;;;;;;7.70;4.57;;;;;;;;;;5013140;28;20018;-81
2020/12/31 07:10:44;;;;;;;7.80;5.07;;;;;;;;;;5013408;28;20669;-81
2020/12/31 07:13:29;;;;;;;9.63;5.93;;;;;;;;;;5012902;28;20636;-81
2020/12/31 07:15:55;;;;;;;9.70;5.90;;;;;;;;;;5011892;28;20105;-81
2020/12/31 07:18:21;;;;;;;10.30;6.37;;;;;;;;;;5013020;28;20432;-81
2020/12/31 07:20:48;;;;;;;9.80;6.23;;;;;;;;;;5011286;28;20022;-81
2020/12/31 07:23:13;;;;;;;11.43;6.83;;;;;;;;;;5011684;28;20042;-81
2020/12/31 07:25:44;;;;;;;10.83;6.87;;;;;;;;;;5013241;28;20426;-81
2020/12/31 07:28:16;;;;;;;9.83;6.47;;;;;;;;;;5011619;28;20133;-81
2020/12/31 07:30:51;;;;;;;8.18;5.93;;;;;;;;;;5012718;28;20022;-81
2020/12/31 07:33:33;;;;;;;9.40;6.00;;;;;;;;;;5012807;28;20029;-81
2020/12/31 07:35:58;;;;;;;8.75;5.70;;;;;;;;;;5011892;28;20636;-81
2020/12/31 07:38:25;;;;;;;8.87;5.70;;;;;;;;;;5011321;28;20025;-82
2020/12/31 07:40:50;;;;;;;7.00;4.60;;;;;;;;;;5011592;28;20168;-81
2020/12/31 07:43:16;;;;;;;7.77;5.50;;;;;;;;;;5012496;28;20049;-81
2020/12/31 07:45:49;;;;;;;8.77;5.57;;;;;;;;;;5011359;28;20026;-81
2020/12/31 07:48:14;;;;;;;8.63;5.10;;;;;;;;;;5011170;28;20015;-81
2020/12/31 07:50:42;;;;;;;8.80;5.20;;;;;;;;;;5009104;28;20021;-81
2020/12/31 07:53:07;;;;;;;9.07;5.60;;;;;;;;;;5013502;28;20022;-81
2020/12/31 07:55:35;;;;;;;9.93;6.00;;;;;;;;;;5013856;28;20021;-81
2020/12/31 07:58:00;;;;;;;10.07;6.20;;;;;;;;;;5019175;28;20021;-81
2020/12/31 08:00:26;;;;;;;10.23;6.17;;;;;;;;;;5012929;28;20165;-81
2020/12/31 08:02:52;;;;;;;8.80;5.70;;;;;;;;;;5009392;28;20026;-81
2020/12/31 08:05:21;;;;;;;10.17;5.20;;;;;;;;;;5004145;28;20044;-81
2020/12/31 08:07:53;;;;;;;9.27;6.07;;;;;;;;;;5011989;28;20030;-81
2020/12/31 08:10:19;;;;;;;9.03;5.53;;;;;;;;;;5007159;28;20044;-81
2020/12/31 08:12:55;;;;;;;8.03;5.00;;;;;;;;;;4998846;28;20017;-82
2020/12/31 08:15:21;;;;;;;10.17;5.30;;;;;;;;;;5009278;28;20029;-81
2020/12/31 08:17:50;;;;;;;8.27;5.47;;;;;;;;;;5008203;28;20018;-82
2020/12/31 08:20:17;;;;;;;9.33;5.80;;;;;;;;;;5014666;28;20025;-82
2020/12/31 08:22:52;;;;;;;12.10;6.87;;;;;;;;;;5030638;28;20022;-81
2020/12/31 08:25:20;;;;;;;9.63;6.47;;;;;;;;;;5007030;28;20018;-81
2020/12/31 08:27:46;;;;;;;12.97;7.23;;;;;;;;;;5025431;28;20022;-82
2020/12/31 08:30:12;;;;;;;11.60;7.53;;;;;;;;;;5016445;28;20076;-82
2020/12/31 08:32:49;;;;;;;20.20;12.83;;;;;;;;;;5009100;28;20021;-82
2020/12/31 08:35:18;;;;;;;26.53;16.00;;;;;;;;;;5017741;28;20052;-82
2020/12/31 08:37:45;;;;;;;16.93;10.33;;;;;;;;;;5009787;28;20105;-82
2020/12/31 08:40:19;;;;;;;13.20;8.20;;;;;;;;;;5010069;28;20026;-82
2020/12/31 08:42:50;;;;;;;12.07;6.90;;;;;;;;;;5009254;28;20022;-82
2020/12/31 08:45:23;;;;;;;12.90;7.93;;;;;;;;;;5012545;28;20014;-82
2020/12/31 08:47:48;;;;;;;13.53;7.77;;;;;;;;;;5004683;28;20121;-82
2020/12/31 08:50:18;;;;;;;15.20;8.47;;;;;;;;;;5010565;28;20108;-82
2020/12/31 08:52:43;;;;;;;12.63;7.53;;;;;;;;;;4995939;28;20105;-82
2020/12/31 08:55:11;;;;;;;11.10;6.77;;;;;;;;;;5017313;28;20110;-82
2020/12/31 08:57:37;;;;;;;12.23;7.63;;;;;;;;;;4996194;28;20034;-82
2020/12/31 09:00:03;;;;;;;12.93;7.80;;;;;;;;;;5002111;28;20658;-81
2020/12/31 09:02:28;;;;;;;17.83;9.03;;;;;;;;;;5022061;28;20030;-83
2020/12/31 09:05:09;;;;;;;16.30;9.20;;;;;;;;;;5010013;28;20029;-82
2020/12/31 09:07:34;;;;;;;15.47;9.60;;;;;;;;;;5013339;28;20013;-81
2020/12/31 09:10:13;;;;;;;19.17;10.93;;;;;;;;;;5016031;28;20014;-81
2020/12/31 09:12:38;;;;;;;19.40;11.17;;;;;;;;;;5005209;28;20022;-81
2020/12/31 09:15:05;;;;;;;17.47;10.77;;;;;;;;;;5009731;28;20022;-81
2020/12/31 09:17:32;;;;;;;17.60;10.40;;;;;;;;;;5013754;28;20097;-81
2020/12/31 09:19:57;;;;;;;21.73;11.97;;;;;;;;;;5015059;28;20033;-81
2020/12/31 09:22:24;;;;;;;23.03;12.20;;;;;;;;;;5013025;28;20495;-81
2020/12/31 09:24:50;;;;;;;21.97;11.87;;;;;;;;;;5013301;28;20108;-81
2020/12/31 09:27:22;;;;;;;20.23;11.07;;;;;;;;;;5008818;28;20541;-82
2020/12/31 09:29:54;;;;;;;19.30;10.35;;;;;;;;;;5026019;28;20010;-82
2020/12/31 09:32:19;;;;;;;21.13;12.25;;;;;;;;;;5018729;28;20017;-81
2020/12/31 09:34:44;;;;;;;23.73;12.33;;;;;;;;;;5028892;28;20507;-82
2020/12/31 09:37:10;;;;;;;20.20;11.97;;;;;;;;;;5025381;28;20022;-82
2020/12/31 09:39:35;;;;;;;22.47;12.23;;;;;;;;;;5009314;28;20038;-82
2020/12/31 09:42:00;;;;;;;22.80;13.10;;;;;;;;;;5013639;28;20503;-82
2020/12/31 09:44:25;;;;;;;23.23;12.80;;;;;;;;;;5007875;28;20354;-82
2020/12/31 09:46:50;;;;;;;22.50;12.87;;;;;;;;;;5019469;28;20057;-82
2020/12/31 09:49:16;;;;;;;22.50;12.63;;;;;;;;;;5012220;28;20024;-82
2020/12/31 09:51:41;;;;;;;23.13;12.83;;;;;;;;;;5014110;28;20026;-82
2020/12/31 09:54:06;;;;;;;22.57;10.87;;;;;;;;;;5028818;28;20025;-82
2020/12/31 09:56:31;;;;;;;22.33;13.10;;;;;;;;;;5014394;28;20101;-82
2020/12/31 09:58:57;;;;;;;23.17;12.77;;;;;;;;;;5013098;28;20040;-82
2020/12/31 10:01:22;;;;;;;21.97;12.53;;;;;;;;;;5019240;28;20093;-82
2020/12/31 10:03:48;;;;;;;21.70;11.50;;;;;;;;;;5016123;28;20042;-82
2020/12/31 10:06:13;;;;;;;25.63;12.37;;;;;;;;;;5016070;28;20018;-81
2020/12/31 10:08:40;;;;;;;19.87;11.67;;;;;;;;;;5016897;28;20021;-81
2020/12/31 10:11:06;;;;;;;23.23;12.50;;;;;;;;;;5022733;28;20430;-82
2020/12/31 10:13:31;;;;;;;20.47;11.90;;;;;;;;;;5016713;28;20033;-81
2020/12/31 10:16:00;;;;;;;18.07;10.60;;;;;;;;;;5020243;28;20036;-82
2020/12/31 10:18:25;;;;;;;18.80;10.97;;;;;;;;;;5017238;28;20044;-82
2020/12/31 10:20:50;;;;;;;19.93;11.63;;;;;;;;;;5013312;28;20138;-82
2020/12/31 10:23:16;;;;;;;24.40;12.87;;;;;;;;;;5020544;28;20014;-82
2020/12/31 10:25:41;;;;;;;24.03;10.27;;;;;;;;;;5016967;28;20069;-81
2020/12/31 10:28:06;;;;;;;27.93;14.20;;;;;;;;;;5030505;28;20465;-82
2020/12/31 10:30:31;;;;;;;21.80;12.13;;;;;;;;;;5029146;28;20030;-82
2020/12/31 10:32:56;;;;;;;19.23;10.53;;;;;;;;;;5017841;28;20040;-81
2020/12/31 10:35:22;;;;;;;19.10;11.13;;;;;;;;;;5017482;28;20022;-81
2020/12/31 10:37:47;;;;;;;17.63;10.17;;;;;;;;;;5014141;28;20491;-81
2020/12/31 10:40:12;;;;;;;17.97;10.93;;;;;;;;;;5020849;28;20096;-81
2020/12/31 10:42:37;;;;;;;19.90;10.73;;;;;;;;;;5017020;28;20020;-81
2020/12/31 10:45:03;;;;;;;19.40;11.00;;;;;;;;;;5021071;28;20108;-82
2020/12/31 10:47:28;;;;;;;16.67;9.90;;;;;;;;;;5011556;28;20018;-82
2020/12/31 10:49:53;;;;;;;19.17;10.63;;;;;;;;;;5011695;28;20029;-82
2020/12/31 10:52:18;;;;;;;18.03;9.73;;;;;;;;;;5010597;28;20017;-82
2020/12/31 10:54:43;;;;;;;20.77;10.97;;;;;;;;;;5010375;28;20053;-82
2020/12/31 10:57:09;;;;;;;21.70;11.50;;;;;;;;;;5011363;28;20083;-81
2020/12/31 10:59:34;;;;;;;18.73;10.70;;;;;;;;;;5023090;28;20026;-81
2020/12/31 11:01:59;;;;;;;18.63;10.07;;;;;;;;;;5014727;28;20021;-82
2020/12/31 11:04:24;;;;;;;19.13;11.37;;;;;;;;;;5015425;28;20021;-82
2020/12/31 11:06:50;;;;;;;18.80;10.97;;;;;;;;;;5011945;28;20108;-82
2020/12/31 11:09:15;;;;;;;21.40;11.00;;;;;;;;;;5012988;28;20468;-82
2020/12/31 11:11:41;;;;;;;23.20;11.70;;;;;;;;;;5011341;28;20138;-81
2020/12/31 11:14:06;;;;;;;21.10;11.30;;;;;;;;;;5011200;28;20395;-82
2020/12/31 11:16:31;;;;;;;18.07;10.30;;;;;;;;;;5011396;28;20545;-82
2020/12/31 11:18:57;;;;;;;19.07;10.77;;;;;;;;;;5010757;28;20034;-82
2020/12/31 11:21:22;;;;;;;23.20;10.80;;;;;;;;;;5011463;28;20030;-82
2020/12/31 11:23:47;;;;;;;18.30;10.50;;;;;;;;;;5011687;28;20029;-81
2020/12/31 11:26:14;;;;;;;18.70;11.27;;;;;;;;;;5011763;28;20026;-81
2020/12/31 11:28:40;;;;;;;17.73;9.60;;;;;;;;;;5012366;28;20010;-82
2020/12/31 11:31:06;;;;;;;16.13;8.83;;;;;;;;;;5011032;28;20040;-82
2020/12/31 11:33:31;;;;;;;16.43;9.77;;;;;;;;;;5011314;28;20022;-81
2020/12/31 11:35:57;;;;;;;16.07;9.00;;;;;;;;;;5011448;28;20018;-82
2020/12/31 11:38:22;;;;;;;15.37;9.53;;;;;;;;;;5003744;28;20499;-82
2020/12/31 11:40:47;;;;;;;15.43;9.93;;;;;;;;;;5021089;28;20097;-81
2020/12/31 11:43:12;;;;;;;17.77;11.33;;;;;;;;;;5008467;28;20384;-82
2020/12/31 11:45:37;;;;;;;15.67;9.83;;;;;;;;;;5023622;28;20487;-82
2020/12/31 11:48:03;;;;;;;16.87;10.07;;;;;;;;;;5010017;28;20018;-82
2020/12/31 11:50:28;;;;;;;18.13;11.07;;;;;;;;;;5015097;28;20014;-82
2020/12/31 11:52:53;;;;;;;18.07;11.20;;;;;;;;;;5010073;28;20018;-82
2020/12/31 11:55:19;;;;;;;20.63;11.87;;;;;;;;;;5004234;28;20408;-82
2020/12/31 11:57:44;;;;;;;21.70;12.43;;;;;;;;;;5008553;28;20026;-82
2020/12/31 12:00:09;;;;;;;23.93;14.20;;;;;;;;;;5012674;28;20029;-82
2020/12/31 12:02:34;;;;;;;24.37;13.33;;;;;;;;;;5009744;28;20022;-82
2020/12/31 12:05:00;;;;;;;26.33;14.97;;;;;;;;;;5012555;28;20018;-81
2020/12/31 12:07:25;;;;;;;26.87;14.77;;;;;;;;;;5007009;28;20022;-82
2020/12/31 12:09:50;;;;;;;22.33;14.20;;;;;;;;;;5007836;28;20049;-81
2020/12/31 12:12:15;;;;;;;23.87;14.40;;;;;;;;;;5010062;28;20427;-81
2020/12/31 12:14:40;;;;;;;23.03;14.70;;;;;;;;;;5010578;28;20834;-81
2020/12/31 12:17:06;;;;;;;21.40;13.73;;;;;;;;;;5008939;28;20050;-82
2020/12/31 12:19:31;;;;;;;23.13;13.43;;;;;;;;;;4999068;28;20464;-81
2020/12/31 12:21:57;;;;;;;22.37;13.20;;;;;;;;;;5006632;28;20380;-82
2020/12/31 12:24:22;;;;;;;24.67;13.30;;;;;;;;;;5007246;28;20056;-81
2020/12/31 12:26:47;;;;;;;25.27;14.00;;;;;;;;;;5010927;28;20456;-82
2020/12/31 12:29:12;;;;;;;64.40;28.47;;;;;;;;;;5010416;28;20025;-82
2020/12/31 12:31:37;;;;;;;142.07;49.13;;;;;;;;;;5009243;28;20064;-82
2020/12/31 12:34:03;;;;;;;67.93;27.90;;;;;;;;;;5007162;28;20040;-81
2020/12/31 12:36:29;;;;;;;39.60;17.83;;;;;;;;;;5012115;28;20029;-82
2020/12/31 12:38:54;;;;;;;33.20;18.90;;;;;;;;;;4996755;28;20065;-82
2020/12/31 12:41:19;;;;;;;29.90;16.03;;;;;;;;;;5006970;28;20050;-81
2020/12/31 12:43:45;;;;;;;33.40;18.97;;;;;;;;;;5009595;28;20022;-81
2020/12/31 12:46:16;;;;;;;31.53;16.90;;;;;;;;;;5030782;28;20025;-81
2020/12/31 12:48:42;;;;;;;33.95;17.65;;;;;;;;;;5013026;28;20112;-81
2020/12/31 12:51:07;;;;;;;34.10;18.73;;;;;;;;;;5010453;28;20105;-81
2020/12/31 12:53:32;;;;;;;30.50;16.77;;;;;;;;;;5009032;28;20472;-81
2020/12/31 12:55:57;;;;;;;33.47;17.27;;;;;;;;;;5013962;28;20022;-81
2020/12/31 12:58:22;;;;;;;27.87;15.37;;;;;;;;;;5012761;28;20481;-81
2020/12/31 13:00:48;;;;;;;28.70;14.33;;;;;;;;;;5010306;28;20108;-82
2020/12/31 13:03:13;;;;;;;25.23;14.27;;;;;;;;;;5012942;28;20384;-81
2020/12/31 13:05:38;;;;;;;24.87;13.50;;;;;;;;;;5010834;28;20072;-81
2020/12/31 13:08:04;;;;;;;28.20;14.23;;;;;;;;;;5013920;28;20057;-81
2020/12/31 13:10:29;;;;;;;44.00;25.07;;;;;;;;;;5015296;28;20021;-81
2020/12/31 13:12:54;;;;;;;23.83;13.17;;;;;;;;;;5011762;28;20075;-81
2020/12/31 13:15:19;;;;;;;25.47;13.53;;;;;;;;;;5013948;28;20033;-81
2020/12/31 13:17:44;;;;;;;28.83;16.23;;;;;;;;;;5013973;28;20032;-81
2020/12/31 13:20:10;;;;;;;26.17;13.97;;;;;;;;;;5009381;28;20027;-81
2020/12/31 13:22:35;;;;;;;24.83;13.57;;;;;;;;;;5006737;28;20033;-81
2020/12/31 13:25:00;;;;;;;25.13;14.20;;;;;;;;;;5012812;28;20026;-81
2020/12/31 13:27:25;;;;;;;29.27;15.07;;;;;;;;;;5011060;28;20014;-81
2020/12/31 13:29:51;;;;;;;26.13;14.47;;;;;;;;;;5012497;28;20034;-81
2020/12/31 13:32:16;;;;;;;27.73;14.93;;;;;;;;;;5013579;28;20022;-81
2020/12/31 13:34:41;;;;;;;26.17;14.67;;;;;;;;;;5013660;28;20031;-81
2020/12/31 13:37:06;;;;;;;27.43;15.13;;;;;;;;;;5014856;28;20029;-81
2020/12/31 13:39:31;;;;;;;29.60;15.57;;;;;;;;;;5013282;28;20057;-81
2020/12/31 13:41:56;;;;;;;28.97;15.90;;;;;;;;;;5011768;28;20469;-81
2020/12/31 13:44:22;;;;;;;29.00;15.70;;;;;;;;;;5012393;28;20057;-81
2020/12/31 13:46:49;;;;;;;31.57;16.53;;;;;;;;;;5013426;28;20461;-81
2020/12/31 13:49:14;;;;;;;31.30;17.13;;;;;;;;;;5011937;28;20464;-81
2020/12/31 13:51:39;;;;;;;32.87;17.30;;;;;;;;;;5004057;28;20022;-82
2020/12/31 13:54:04;;;;;;;34.10;17.50;;;;;;;;;;5010792;28;20042;-82
2020/12/31 13:56:30;;;;;;;35.30;18.67;;;;;;;;;;5012945;28;20453;-82
2020/12/31 13:58:55;;;;;;;35.73;17.87;;;;;;;;;;5013047;28;20038;-81
2020/12/31 14:01:20;;;;;;;34.80;17.17;;;;;;;;;;5013064;28;20368;-81
2020/12/31 14:03:46;;;;;;;30.43;16.50;;;;;;;;;;5006840;28;20022;-83
2020/12/31 14:06:11;;;;;;;30.70;16.17;;;;;;;;;;5009857;28;20224;-86
2020/12/31 14:08:36;;;;;;;26.70;13.27;;;;;;;;;;5004622;28;20014;-86
2020/12/31 14:11:02;;;;;;;27.23;15.23;;;;;;;;;;5007630;28;20021;-86
2020/12/31 14:13:27;;;;;;;24.40;12.80;;;;;;;;;;5010869;28;20033;-87
2020/12/31 14:15:52;;;;;;;31.47;16.60;;;;;;;;;;5003668;28;20029;-86
2020/12/31 14:18:17;;;;;;;27.57;15.27;;;;;;;;;;5003285;28;20018;-87
2020/12/31 14:20:42;;;;;;;27.97;15.10;;;;;;;;;;5009988;28;20436;-86
2020/12/31 14:23:08;;;;;;;31.30;17.23;;;;;;;;;;5007158;28;20024;-86
2020/12/31 14:25:33;;;;;;;35.23;18.33;;;;;;;;;;5009124;28;20025;-86
2020/12/31 14:27:58;;;;;;;32.17;17.17;;;;;;;;;;5011900;28;20018;-86